Главная страница
METAR-TAF:

METAR-TAF

Аэропорты :

Кристианстад, Швеция

широта: 55-55N, долгота: 014-05E, высота над уровнем моря: 23 м

Текущие метеонаблюдения

Эта сводка был подготовлена 22 минут назад, в 11:20 UTC
Ветер 8 Узел от западный-юго-западный, изменяющийся между юго-западный и западный
Температура 18°C
Влажность 73%
Давление 1000 hPa
Видимость 10 км и более
Отдельные облака на высоте 2400 фута
Рассеянная облачность на высоте 7000 фута

METAR: ESMK 241120Z 24008KT 220V280 9999 SCT024 BKN070 18/13 Q1000

Время: 13:42 (11:42 UTC)

Прогноз

Эта сводка был подготовлена 35 минут назад, в 11:07 UTC
Прогноз действительный с 24-го 12 UTC до 24-го 15 UTC
Ветер 10 Узел от западный-юго-западный
Видимость 10 км и более
Отдельные облака на высоте 3000 фута

TAF: ESMK 241107Z 2412/2415 24010KT 9999 SCT030

Метеонаблюдения и прогнозы для более 4000 аэропортов (сводки METAR и TAF).

Имеющиеся станции представлены на карте желтыми и красными точками.

Чтобы увидеть название станции, наведите на нее мышь.

Затем щелкните, чтобы увидеть метеонаблюдения и метеопрогнозы.

Управление картой: чтобы увеличить масштаб, щелкните зеленые кнопки с черным крестиком; чтобы уменьшить масштаб, щелкните зеленую кнопку с тире; для просмотра соседних карт щелкайте зеленые стрелки.


METAR-TAF: